首页
METAR-TAF:

METAR-TAF

机场 :

Gioia del Colle, 意大利

纬度: 40-46N, 经度: 016-56E, 海拔: 345米

当前天气观测

该预报发布于1小时和20分钟前的17:55 UTC
风速8节,风向西
温度 15°C
湿度 63%
气压 1015 hPa
能见度10公里或以上
1500米以下无云,无积雨云

METAR: LIBV 211755Z 27008KT CAVOK 15/08 Q1015

时间: 21:15 (19:15 UTC)

预报

该预报发布于2小时和15分钟前的17:00 UTC
预报有效从21日的 18点(UTC)到 22日的 03点(UTC)
风速10节,风向南转西南
能见度10公里或以上
散云层高于3000英尺

TAF: LIBV 211700Z 2118/2203 21010KT 9999 SCT030

超过4000个机场的气象观测和天气预报(METAR&TAF报告)。

可查询的气象台以黄色和红色小点在地图上表示。

将鼠标移到小点上方,可查看气象台名称。

然后点击查看天气观测和预报。

如需切换地图:点击带黑十字的绿色按钮放大地图;点击带横线的绿色按钮缩小地图;或者点击绿色箭头查看邻近地区的地图。


METAR-TAF: